Time;durP1;ratioP1;P1;durP2;ratioP2;P2;SDS_P1;SDS_P2;PMS_P1;PMS_P2;Temp;Humidity;BMP_temperature;BMP_pressure;BME280_temperature;BME280_humidity;BME280_pressure;Samples;Min_cycle;Max_cycle;Signal;HPM_P1;HPM_P2
2022/08/07 00:00:51;;;;;;;3.70;1.80;;;11.40;99.90;;;;;;4986561;28;20113;-92
2022/08/07 00:03:17;;;;;;;7.40;1.80;;;11.30;99.90;;;;;;4982373;28;20026;-92
2022/08/07 00:05:42;;;;;;;7.45;3.88;;;11.30;99.90;;;;;;4980305;28;20117;-93
2022/08/07 00:08:08;;;;;;;7.45;3.22;;;11.20;99.90;;;;;;4979958;28;20479;-92
2022/08/07 00:10:35;;;;;;;6.20;2.70;;;11.10;99.90;;;;;;4979549;28;20077;-92
2022/08/07 00:13:03;;;;;;;3.05;1.45;;;11.10;99.90;;;;;;4979729;28;20121;-93
2022/08/07 00:15:30;;;;;;;3.10;1.52;;;11.00;99.90;;;;;;4980312;28;20023;-94
2022/08/07 00:17:56;;;;;;;2.58;1.40;;;10.90;99.90;;;;;;4981936;28;20030;-94
2022/08/07 00:20:22;;;;;;;4.50;1.60;;;10.90;99.90;;;;;;4979263;28;20033;-93
2022/08/07 00:22:47;;;;;;;3.40;1.58;;;10.90;99.90;;;;;;4979111;28;20480;-92
2022/08/07 00:25:13;;;;;;;4.32;1.77;;;10.90;99.90;;;;;;4979641;28;20030;-92
2022/08/07 00:27:39;;;;;;;4.07;2.60;;;10.90;99.90;;;;;;4987520;28;20098;-92
2022/08/07 00:30:05;;;;;;;4.30;2.20;;;10.90;99.90;;;;;;4988965;28;20062;-93
2022/08/07 00:32:31;;;;;;;5.95;3.08;;;10.90;99.90;;;;;;4988900;28;20019;-93
2022/08/07 00:34:57;;;;;;;3.63;1.63;;;10.80;99.90;;;;;;4982501;28;20045;-92
2022/08/07 00:37:23;;;;;;;4.20;2.70;;;10.80;99.90;;;;;;4983872;28;20037;-93
2022/08/07 00:39:49;;;;;;;4.03;2.33;;;10.80;99.90;;;;;;4978445;28;20037;-92
2022/08/07 00:42:15;;;;;;;5.55;3.70;;;10.70;99.90;;;;;;4978677;28;20026;-92
2022/08/07 00:44:41;;;;;;;7.95;3.28;;;10.70;99.90;;;;;;4978591;28;20030;-90
2022/08/07 00:47:07;;;;;;;5.50;3.03;;;10.60;99.90;;;;;;4978313;28;20042;-92
2022/08/07 00:49:33;;;;;;;6.50;2.83;;;10.50;99.90;;;;;;4978477;28;20057;-94
2022/08/07 00:51:59;;;;;;;4.00;2.13;;;10.50;99.90;;;;;;4978654;28;20054;-92
2022/08/07 00:54:25;;;;;;;5.25;2.10;;;10.40;99.90;;;;;;4978890;28;20069;-93
2022/08/07 00:56:51;;;;;;;3.80;2.10;;;10.40;99.90;;;;;;4978500;28;20030;-92
2022/08/07 00:59:17;;;;;;;4.22;1.77;;;10.30;99.90;;;;;;4978412;28;20034;-93
2022/08/07 01:01:43;;;;;;;2.85;1.80;;;10.30;99.90;;;;;;4995636;28;20496;-91
2022/08/07 01:04:09;;;;;;;2.78;1.55;;;10.20;99.90;;;;;;4978501;28;20476;-92
2022/08/07 01:06:35;;;;;;;1.92;1.50;;;10.20;99.90;;;;;;4978601;28;20034;-92
2022/08/07 01:09:02;;;;;;;2.17;1.40;;;10.20;99.90;;;;;;4978545;28;20023;-91
2022/08/07 01:11:31;;;;;;;2.80;1.70;;;10.20;99.90;;;;;;4978294;28;20031;-92
2022/08/07 01:13:57;;;;;;;1.83;1.52;;;10.20;99.90;;;;;;4978928;28;20058;-92
2022/08/07 01:16:23;;;;;;;3.65;2.10;;;10.20;99.90;;;;;;4979121;28;20100;-91
2022/08/07 01:18:49;;;;;;;3.83;2.28;;;10.20;99.90;;;;;;4980342;28;20061;-93
2022/08/07 01:21:23;;;;;;;3.83;2.00;;;10.10;99.90;;;;;;4979468;28;20431;-91
2022/08/07 01:23:50;;;;;;;4.13;1.73;;;10.10;99.90;;;;;;4979513;28;20029;-91
2022/08/07 01:26:19;;;;;;;4.65;2.42;;;10.00;99.90;;;;;;4998985;28;20034;-92
2022/08/07 01:28:47;;;;;;;2.92;1.70;;;10.00;99.90;;;;;;5000149;28;20041;-91
2022/08/07 01:31:15;;;;;;;3.97;1.80;;;9.90;99.90;;;;;;4993258;28;20037;-92
2022/08/07 01:33:41;;;;;;;4.10;1.90;;;9.90;99.90;;;;;;4977860;28;20038;-91
2022/08/07 01:36:10;;;;;;;1.90;1.55;;;9.90;99.90;;;;;;4978210;28;20490;-93
2022/08/07 01:38:38;;;;;;;2.80;1.80;;;9.90;99.90;;;;;;4991256;28;20069;-91
2022/08/07 01:41:05;;;;;;;1.95;1.23;;;9.90;99.90;;;;;;4980122;28;20575;-92
2022/08/07 01:43:32;;;;;;;2.55;1.40;;;9.90;99.90;;;;;;4978671;28;20037;-92
2022/08/07 01:45:58;;;;;;;3.90;1.50;;;9.80;99.90;;;;;;4980107;28;20041;-92
2022/08/07 01:48:25;;;;;;;4.07;1.85;;;9.80;99.90;;;;;;4994307;28;20119;-94
2022/08/07 01:51:12;;;;;;;3.42;1.50;;;9.80;99.90;;;;;;4979706;28;20022;-93
2022/08/07 01:53:43;;;;;;;2.35;1.67;;;9.80;99.90;;;;;;4978476;28;20031;-92
2022/08/07 01:56:13;;;;;;;3.83;1.88;;;9.80;99.90;;;;;;4978077;28;20022;-93
2022/08/07 01:58:46;;;;;;;3.55;1.50;;;9.70;99.90;;;;;;4978003;28;20057;-94
2022/08/07 02:01:18;;;;;;;1.40;1.30;;;9.70;99.90;;;;;;4978150;28;20027;-93
2022/08/07 02:03:56;;;;;;;5.20;1.77;;;9.70;99.90;;;;;;4978351;28;20117;-93
2022/08/07 02:06:26;;;;;;;2.60;1.60;;;9.70;99.90;;;;;;4977740;28;20102;-93
2022/08/07 02:08:54;;;;;;;2.17;1.48;;;9.70;99.90;;;;;;4978386;28;20027;-92
2022/08/07 02:11:20;;;;;;;2.38;1.40;;;9.60;99.90;;;;;;4982177;28;20041;-93
2022/08/07 02:13:47;;;;;;;2.50;1.63;;;9.60;99.90;;;;;;4981966;28;20022;-91
2022/08/07 02:16:15;;;;;;;2.60;1.70;;;9.70;99.90;;;;;;4981789;28;20479;-91
2022/08/07 02:18:43;;;;;;;3.67;1.50;;;9.60;99.90;;;;;;4981706;28;20045;-92
2022/08/07 02:21:08;;;;;;;2.70;1.50;;;9.60;99.90;;;;;;4982196;28;20442;-93
2022/08/07 02:23:38;;;;;;;2.60;1.40;;;9.50;99.90;;;;;;4982005;28;20034;-93
2022/08/07 02:26:05;;;;;;;3.03;1.50;;;9.50;99.90;;;;;;4982169;28;20026;-93
2022/08/07 02:28:34;;;;;;;3.50;1.52;;;9.50;99.90;;;;;;4982205;28;20058;-92
2022/08/07 02:31:01;;;;;;;2.55;1.52;;;9.50;99.90;;;;;;4982367;28;20061;-92
2022/08/07 02:33:28;;;;;;;6.07;2.38;;;9.50;99.90;;;;;;4981685;28;20026;-91
2022/08/07 02:35:55;;;;;;;5.75;1.70;;;9.40;99.90;;;;;;4981250;28;20053;-92
2022/08/07 02:38:31;;;;;;;1.90;1.50;;;9.40;99.90;;;;;;4981036;28;20038;-93
2022/08/07 02:40:58;;;;;;;2.80;1.40;;;9.40;99.90;;;;;;4981163;28;20042;-93
2022/08/07 02:43:26;;;;;;;3.78;1.25;;;9.40;99.90;;;;;;4980887;28;20031;-93
2022/08/07 02:45:53;;;;;;;4.68;1.70;;;9.40;99.90;;;;;;4981005;28;20022;-95
2022/08/07 02:48:19;;;;;;;2.95;1.58;;;9.40;99.90;;;;;;4981466;28;20030;-94
2022/08/07 02:50:49;;;;;;;2.05;1.38;;;9.40;99.90;;;;;;4981599;28;20117;-90
2022/08/07 02:53:23;;;;;;;5.40;1.60;;;9.30;99.90;;;;;;4981933;28;20033;-93
2022/08/07 02:55:51;;;;;;;3.25;1.70;;;9.30;99.90;;;;;;4982374;28;20026;-95
2022/08/07 02:58:20;;;;;;;4.68;1.58;;;9.30;99.90;;;;;;4994664;28;20034;-93
2022/08/07 03:00:50;;;;;;;2.88;1.35;;;9.20;99.90;;;;;;5003334;28;20026;-91
2022/08/07 03:03:17;;;;;;;2.42;1.52;;;9.20;99.90;;;;;;5002965;28;20034;-94
2022/08/07 03:05:44;;;;;;;3.13;1.63;;;9.20;99.90;;;;;;5003260;28;20048;-90
2022/08/07 03:08:11;;;;;;;3.42;1.63;;;9.20;99.90;;;;;;5003158;28;20026;-89
2022/08/07 03:10:38;;;;;;;2.00;1.60;;;9.10;99.90;;;;;;5001552;28;20018;-93
2022/08/07 03:13:06;;;;;;;4.00;1.60;;;9.10;99.90;;;;;;4986375;28;20129;-92
2022/08/07 03:15:32;;;;;;;3.28;1.90;;;9.10;99.90;;;;;;4986222;28;20038;-89
2022/08/07 03:17:59;;;;;;;2.75;1.55;;;9.10;99.90;;;;;;4984825;28;20030;-92
2022/08/07 03:20:25;;;;;;;4.80;2.22;;;9.10;99.90;;;;;;4987790;28;20061;-93
2022/08/07 03:22:53;;;;;;;2.95;1.60;;;9.00;99.90;;;;;;4992153;28;20027;-94
2022/08/07 03:25:20;;;;;;;4.75;1.77;;;9.00;99.90;;;;;;4998546;28;20027;-90
2022/08/07 03:27:48;;;;;;;4.63;1.90;;;9.00;99.90;;;;;;4986493;28;20499;-93
2022/08/07 03:30:14;;;;;;;3.60;2.08;;;9.00;99.90;;;;;;4981783;28;20019;-92
2022/08/07 03:32:42;;;;;;;2.83;2.00;;;8.90;99.90;;;;;;4981917;28;20030;-92
2022/08/07 03:35:21;;;;;;;3.55;2.30;;;9.00;99.90;;;;;;4981942;28;20035;-94
2022/08/07 03:37:55;;;;;;;3.35;1.90;;;8.90;99.90;;;;;;4984888;28;20026;-92
2022/08/07 03:40:23;;;;;;;3.10;1.73;;;9.00;99.90;;;;;;5001295;28;20018;-91
2022/08/07 03:42:49;;;;;;;5.53;2.20;;;8.90;99.90;;;;;;5001922;28;20038;-91
2022/08/07 03:45:15;;;;;;;4.43;1.88;;;8.90;99.90;;;;;;4995592;28;20102;-94
2022/08/07 03:47:41;;;;;;;2.75;1.85;;;8.90;99.90;;;;;;4992049;28;20046;-92
2022/08/07 03:50:07;;;;;;;2.58;1.80;;;8.90;99.90;;;;;;4989829;28;20101;-95
2022/08/07 03:52:35;;;;;;;2.03;1.58;;;8.90;99.90;;;;;;4987171;28;20030;-94
2022/08/07 03:55:02;;;;;;;1.98;1.63;;;8.80;99.90;;;;;;4987859;28;20118;-93
2022/08/07 03:57:30;;;;;;;3.10;1.63;;;8.80;99.90;;;;;;4982773;28;20038;-92
2022/08/07 03:59:56;;;;;;;3.13;1.88;;;8.80;99.90;;;;;;4982268;28;20042;-91
2022/08/07 04:02:23;;;;;;;2.33;1.67;;;8.80;99.90;;;;;;4981078;28;20030;-93
2022/08/07 04:04:49;;;;;;;2.63;1.70;;;8.80;99.90;;;;;;4980670;28;20077;-91
2022/08/07 04:07:19;;;;;;;3.45;1.80;;;8.80;99.90;;;;;;4980610;28;20022;-91
2022/08/07 04:09:46;;;;;;;3.08;1.98;;;8.80;99.90;;;;;;4980532;28;20026;-91
2022/08/07 04:12:15;;;;;;;3.50;1.80;;;8.80;99.90;;;;;;4980282;28;20022;-94
2022/08/07 04:14:42;;;;;;;1.95;1.67;;;8.80;99.90;;;;;;4998147;28;20034;-90
2022/08/07 04:17:09;;;;;;;3.97;1.90;;;8.80;99.90;;;;;;4980303;28;20050;-93
2022/08/07 04:19:35;;;;;;;2.13;1.40;;;8.80;99.90;;;;;;4980182;28;20031;-93
2022/08/07 04:22:04;;;;;;;3.63;2.08;;;8.80;99.90;;;;;;4979749;28;20034;-93
2022/08/07 04:24:30;;;;;;;4.43;1.80;;;8.70;99.90;;;;;;4979917;28;20067;-92
2022/08/07 04:26:58;;;;;;;2.83;1.70;;;8.60;99.90;;;;;;4979419;28;20075;-93
2022/08/07 04:29:24;;;;;;;2.83;2.10;;;8.60;99.90;;;;;;4979602;28;20026;-93
2022/08/07 04:31:50;;;;;;;2.33;1.75;;;8.60;99.90;;;;;;4979089;28;20034;-91
2022/08/07 04:34:16;;;;;;;3.75;2.05;;;8.60;99.90;;;;;;4979178;28;20023;-93
2022/08/07 04:36:42;;;;;;;2.47;1.95;;;8.60;99.90;;;;;;4978906;28;20030;-92
2022/08/07 04:39:08;;;;;;;4.88;1.77;;;8.60;99.90;;;;;;4979018;28;20044;-94
2022/08/07 04:41:34;;;;;;;5.05;1.70;;;8.60;99.90;;;;;;4978985;28;20030;-93
2022/08/07 04:44:01;;;;;;;2.30;1.60;;;8.50;99.90;;;;;;4979201;28;20034;-93
2022/08/07 04:46:42;;;;;;;2.83;1.88;;;8.50;99.90;;;;;;4978653;28;20050;-95
2022/08/07 04:49:27;;;;;;;5.72;1.63;;;8.50;99.90;;;;;;4979368;28;20031;-93
2022/08/07 04:52:04;;;;;;;2.72;2.40;;;8.40;99.90;;;;;;4980051;28;20055;-92
2022/08/07 04:54:33;;;;;;;2.53;1.60;;;8.40;99.90;;;;;;4979145;28;20517;-91
2022/08/07 04:57:29;;;;;;;2.95;1.98;;;8.30;99.90;;;;;;4996226;28;20037;-94
2022/08/07 05:00:12;;;;;;;3.25;1.67;;;8.30;99.90;;;;;;4971025;28;20034;-94
2022/08/07 05:02:44;;;;;;;2.03;1.48;;;8.30;99.90;;;;;;4978715;28;20480;-91
2022/08/07 05:05:22;;;;;;;5.72;1.80;;;8.30;99.90;;;;;;4979519;28;20030;-93
2022/08/07 05:08:20;;;;;;;2.15;1.52;;;8.30;99.90;;;;;;4981009;28;20030;-93
2022/08/07 05:11:00;;;;;;;4.20;1.60;;;8.30;99.90;;;;;;4979579;28;20045;-92
2022/08/07 05:13:51;;;;;;;3.45;1.85;;;8.30;99.90;;;;;;4990089;28;20034;-93
2022/08/07 05:16:19;;;;;;;2.60;1.52;;;8.30;99.90;;;;;;4980162;28;20026;-90
2022/08/07 05:18:53;;;;;;;2.33;1.52;;;8.30;99.90;;;;;;4982223;28;20048;-92
2022/08/07 05:21:24;;;;;;;4.15;2.03;;;8.30;99.90;;;;;;4981672;28;20034;-91
2022/08/07 05:24:01;;;;;;;3.58;1.90;;;8.30;99.90;;;;;;4980731;28;20018;-94
2022/08/07 05:26:30;;;;;;;4.40;1.60;;;8.20;99.90;;;;;;4982879;28;20065;-93
2022/08/07 05:28:59;;;;;;;2.78;1.60;;;8.20;99.90;;;;;;4984225;28;20121;-93
2022/08/07 05:31:32;;;;;;;1.60;1.50;;;8.20;99.90;;;;;;4983256;28;20101;-93
2022/08/07 05:34:00;;;;;;;5.13;2.25;;;8.10;99.90;;;;;;4980701;28;20365;-92
2022/08/07 05:36:28;;;;;;;3.72;1.70;;;8.10;99.90;;;;;;4981189;28;20026;-93
2022/08/07 05:38:56;;;;;;;3.80;1.85;;;8.10;99.90;;;;;;4983054;28;20067;-94
2022/08/07 05:41:23;;;;;;;3.63;2.10;;;8.20;99.90;;;;;;4984464;28;20026;-93
2022/08/07 05:43:52;;;;;;;3.17;1.75;;;8.20;99.90;;;;;;4982892;28;20050;-95
2022/08/07 05:46:22;;;;;;;4.22;1.75;;;8.20;99.90;;;;;;4985660;28;20018;-95
2022/08/07 05:48:51;;;;;;;3.17;1.90;;;8.20;99.90;;;;;;4985839;28;20026;-92
2022/08/07 05:51:18;;;;;;;5.28;2.00;;;8.20;99.90;;;;;;4985271;28;20281;-93
2022/08/07 05:53:45;;;;;;;4.85;2.10;;;8.30;99.90;;;;;;4990710;28;20037;-90
2022/08/07 05:56:12;;;;;;;7.32;2.88;;;8.20;99.90;;;;;;5001276;28;20106;-92
2022/08/07 05:58:40;;;;;;;3.35;2.10;;;8.20;99.90;;;;;;4982792;28;20034;-92
2022/08/07 06:01:08;;;;;;;2.90;1.75;;;8.20;99.90;;;;;;4983433;28;20041;-92
2022/08/07 06:03:35;;;;;;;6.72;2.17;;;8.20;99.90;;;;;;4985022;28;20042;-91
2022/08/07 06:06:02;;;;;;;4.35;1.98;;;8.20;99.90;;;;;;4987153;28;20022;-92
2022/08/07 06:08:29;;;;;;;2.90;1.88;;;8.20;99.90;;;;;;4987076;28;20022;-94
2022/08/07 06:10:55;;;;;;;4.78;2.20;;;8.30;99.90;;;;;;4983915;28;20566;-91
2022/08/07 06:13:21;;;;;;;5.30;2.05;;;8.30;99.90;;;;;;4982922;28;20058;-92
2022/08/07 06:15:48;;;;;;;5.65;2.05;;;8.40;99.90;;;;;;4983156;28;20033;-92
2022/08/07 06:18:15;;;;;;;3.17;2.03;;;8.40;99.90;;;;;;4982461;28;20047;-92
2022/08/07 06:20:43;;;;;;;6.25;2.22;;;8.40;99.90;;;;;;4983264;28;20023;-93
2022/08/07 06:23:09;;;;;;;3.97;2.00;;;8.50;99.90;;;;;;4984236;28;20406;-91
2022/08/07 06:25:36;;;;;;;4.05;1.90;;;8.60;99.90;;;;;;4989191;28;20136;-92
2022/08/07 06:28:08;;;;;;;3.72;1.98;;;8.70;99.90;;;;;;4987980;28;20035;-93
2022/08/07 06:30:35;;;;;;;2.95;2.05;;;8.80;99.90;;;;;;5000735;28;20011;-91
2022/08/07 06:33:01;;;;;;;3.22;2.28;;;8.90;99.90;;;;;;4997190;28;20026;-91
2022/08/07 06:35:27;;;;;;;3.67;2.53;;;9.00;99.90;;;;;;4986946;28;20057;-92
2022/08/07 06:37:53;;;;;;;4.22;2.50;;;9.10;99.90;;;;;;4994931;28;20041;-91
2022/08/07 06:40:19;;;;;;;3.47;2.42;;;9.20;99.90;;;;;;4991481;28;20046;-93
2022/08/07 06:42:47;;;;;;;3.72;2.50;;;9.30;99.90;;;;;;4988121;28;20061;-91
2022/08/07 06:45:15;;;;;;;5.03;2.20;;;9.40;99.90;;;;;;4991008;28;20026;-93
2022/08/07 06:47:41;;;;;;;4.20;2.35;;;9.50;99.90;;;;;;4992203;28;20045;-92
2022/08/07 06:50:08;;;;;;;3.08;2.10;;;9.50;99.90;;;;;;4987380;28;20065;-92
2022/08/07 06:52:36;;;;;;;7.75;3.65;;;9.60;99.90;;;;;;4988200;28;20026;-93
2022/08/07 06:55:10;;;;;;;4.05;2.53;;;9.70;99.90;;;;;;5002129;28;20242;-92
2022/08/07 06:57:37;;;;;;;6.45;2.70;;;9.90;99.90;;;;;;4987616;28;20043;-92
2022/08/07 07:00:04;;;;;;;8.82;3.10;;;10.10;99.90;;;;;;4996961;28;20034;-92
2022/08/07 07:02:31;;;;;;;4.40;2.08;;;10.30;99.90;;;;;;4986704;28;20033;-91
2022/08/07 07:04:57;;;;;;;9.63;3.83;;;10.40;99.90;;;;;;4983255;28;20023;-91
2022/08/07 07:07:23;;;;;;;11.35;3.22;;;10.60;99.90;;;;;;4984889;28;20026;-94
2022/08/07 07:09:49;;;;;;;9.38;3.97;;;10.80;99.90;;;;;;4983787;28;20031;-92
2022/08/07 07:12:24;;;;;;;5.88;2.40;;;11.00;99.90;;;;;;4982257;28;20022;-91
2022/08/07 07:15:16;;;;;;;8.30;3.03;;;11.10;99.90;;;;;;4983377;28;20031;-94
2022/08/07 07:17:49;;;;;;;8.63;4.35;;;11.30;99.90;;;;;;4982519;28;20041;-93
2022/08/07 07:20:22;;;;;;;16.45;4.97;;;11.40;99.90;;;;;;4982924;28;20030;-92
2022/08/07 07:22:49;;;;;;;9.35;4.70;;;11.50;99.90;;;;;;4982123;28;20384;-92
2022/08/07 07:25:17;;;;;;;8.90;5.05;;;11.70;99.90;;;;;;4986577;28;20037;-91
2022/08/07 07:27:52;;;;;;;8.77;4.70;;;11.80;99.90;;;;;;4982717;28;20023;-92
2022/08/07 07:30:21;;;;;;;6.57;3.80;;;12.00;99.90;;;;;;4983169;28;20121;-92
2022/08/07 07:32:48;;;;;;;11.07;4.25;;;12.20;99.90;;;;;;4983399;28;20046;-92
2022/08/07 07:35:15;;;;;;;16.52;6.00;;;12.40;99.90;;;;;;4985140;28;20037;-92
2022/08/07 07:37:43;;;;;;;8.82;4.63;;;12.50;99.90;;;;;;4972765;28;20040;-90
2022/08/07 07:40:15;;;;;;;7.18;3.05;;;12.70;99.90;;;;;;5000912;28;20046;-89
2022/08/07 07:42:43;;;;;;;8.15;4.15;;;12.90;99.90;;;;;;5001593;28;20042;-90
2022/08/07 07:45:11;;;;;;;7.28;4.35;;;13.00;99.90;;;;;;5000492;28;20061;-92
2022/08/07 07:47:41;;;;;;;5.82;3.30;;;13.20;99.90;;;;;;4948627;28;1360363;-90
2022/08/07 07:50:10;;;;;;;9.10;4.00;;;13.40;99.90;;;;;;4994749;28;20100;-94
2022/08/07 07:52:37;;;;;;;8.18;4.20;;;13.50;99.90;;;;;;4992759;28;20640;-93
2022/08/07 07:55:04;;;;;;;13.27;3.95;;;13.60;99.90;;;;;;4991042;28;20022;-92
2022/08/07 07:57:32;;;;;;;9.98;3.80;;;13.70;99.90;;;;;;4999792;28;20053;-94
2022/08/07 08:00:00;;;;;;;7.00;3.15;;;13.80;99.90;;;;;;4997913;28;20006;-92
2022/08/07 08:02:29;;;;;;;9.52;3.80;;;14.00;99.90;;;;;;4989289;28;20037;-92
2022/08/07 08:04:55;;;;;;;6.20;3.30;;;14.10;99.90;;;;;;4985051;28;20087;-95
2022/08/07 08:07:23;;;;;;;8.90;4.35;;;14.20;99.90;;;;;;4984700;28;20022;-93
2022/08/07 08:09:52;;;;;;;10.45;4.38;;;14.30;99.90;;;;;;4985308;28;20030;-94
2022/08/07 08:12:18;;;;;;;15.45;4.60;;;14.50;99.90;;;;;;4984539;28;20129;-92
2022/08/07 08:14:44;;;;;;;6.95;3.90;;;14.70;99.90;;;;;;4984710;28;20058;-93
2022/08/07 08:17:12;;;;;;;14.02;4.70;;;14.80;99.90;;;;;;4983761;28;20045;-93
2022/08/07 08:19:40;;;;;;;8.18;3.67;;;15.10;99.90;;;;;;4983805;28;20030;-94
2022/08/07 08:27:41;;;;;;;7.55;3.28;;;15.60;99.90;;;;;;5000026;28;20041;-92
2022/08/07 08:30:09;;;;;;;10.57;4.15;;;15.70;99.90;;;;;;4982858;28;20088;-92
2022/08/07 08:32:40;;;;;;;8.93;3.45;;;15.90;99.90;;;;;;4982308;28;20446;-93
2022/08/07 08:35:09;;;;;;;10.48;3.63;;;16.10;99.90;;;;;;4982990;28;20026;-92
2022/08/07 08:37:36;;;;;;;9.48;3.88;;;16.20;99.90;;;;;;4981663;28;20049;-92
2022/08/07 08:40:09;;;;;;;7.72;3.47;;;16.40;99.90;;;;;;4981464;28;20057;-93
2022/08/07 08:43:10;;;;;;;9.32;3.53;;;16.60;99.90;;;;;;4980992;28;20085;-93
2022/08/07 08:45:54;;;;;;;;;;;16.80;99.90;;;;;;4924043;29;20118;-93
2022/08/07 08:48:50;;;;;;;14.55;3.50;;;17.00;99.90;;;;;;4923620;29;20017;-94
2022/08/07 08:51:24;;;;;;;9.02;3.80;;;17.20;99.90;;;;;;4938560;29;20056;-90
2022/08/07 08:54:04;;;;;;;9.23;3.08;;;17.30;99.90;;;;;;4930054;29;20414;-93
2022/08/07 08:56:36;;;;;;;9.20;3.35;;;17.40;99.90;;;;;;4926711;29;20063;-94
2022/08/07 08:59:12;;;;;;;6.43;2.70;;;17.60;99.90;;;;;;4924028;29;20071;-94
2022/08/07 09:02:24;;;;;;;8.68;2.95;;;17.80;99.90;;;;;;4925360;29;20102;-94
2022/08/07 09:05:11;;;;;;;6.32;2.50;;;17.90;99.90;;;;;;4910723;29;20087;-92
2022/08/07 09:07:48;;;;;;;4.85;2.28;;;18.10;99.90;;;;;;4923875;29;20036;-91
2022/08/07 09:10:33;;;;;;;13.60;2.60;;;18.20;99.90;;;;;;4922686;29;20035;-92
2022/08/07 09:13:29;;;;;;;6.57;2.20;;;18.40;99.90;;;;;;4923283;29;20032;-91
2022/08/07 09:16:09;;;;;;;5.97;2.33;;;18.50;99.90;;;;;;4905373;29;20032;-92
2022/08/07 09:18:59;;;;;;;4.47;1.95;;;18.60;99.90;;;;;;4927806;28;20032;-92
2022/08/07 09:21:33;;;;;;;9.27;2.17;;;18.60;99.90;;;;;;4981109;28;20073;-95
2022/08/07 09:24:41;;;;;;;4.90;1.85;;;18.60;99.90;;;;;;4980224;28;20023;-92
2022/08/07 09:27:18;;;;;;;4.25;1.75;;;18.70;99.90;;;;;;4980671;28;20088;-94
2022/08/07 09:29:52;;;;;;;6.95;2.22;;;18.80;99.90;;;;;;4980824;28;20093;-94
2022/08/07 09:32:27;;;;;;;6.53;1.73;;;18.90;99.90;;;;;;4980137;28;20031;-93
2022/08/07 09:35:01;;;;;;;6.22;1.85;;;19.00;99.80;;;;;;4983075;28;20041;-93
2022/08/07 09:37:39;;;;;;;5.90;2.00;;;19.20;99.10;;;;;;4982721;28;20086;-95
2022/08/07 09:40:25;;;;;;;8.02;2.58;;;19.20;98.00;;;;;;4997726;28;20053;-91
2022/08/07 09:43:18;;;;;;;6.40;1.90;;;19.40;97.60;;;;;;4994001;28;20022;-91
2022/08/07 09:46:03;;;;;;;9.45;2.85;;;19.50;96.40;;;;;;4982594;28;20035;-94
2022/08/07 09:48:53;;;;;;;6.15;1.63;;;19.50;95.70;;;;;;4960777;28;20043;-94
2022/08/07 09:51:37;;;;;;;4.57;1.70;;;19.50;95.80;;;;;;4960760;28;20496;-94
2022/08/07 09:54:09;;;;;;;5.05;1.83;;;19.60;95.80;;;;;;4960820;28;20066;-94
2022/08/07 09:56:37;;;;;;;4.55;1.60;;;19.70;95.40;;;;;;4961174;28;20031;-96
2022/08/07 09:59:41;;;;;;;7.53;1.98;;;19.80;95.20;;;;;;4962946;28;20550;-95
2022/08/07 10:02:06;;;;;;;5.25;1.60;;;19.80;94.70;;;;;;4962223;28;20030;-96
2022/08/07 10:04:43;;;;;;;5.68;1.40;;;19.80;94.50;;;;;;4965998;28;20097;-95
2022/08/07 10:07:31;;;;;;;5.07;1.40;;;19.90;93.50;;;;;;4977145;28;20113;-93
2022/08/07 10:10:29;;;;;;;5.65;1.40;;;20.00;92.80;;;;;;4963923;28;20070;-93
2022/08/07 10:13:09;;;;;;;6.18;1.58;;;20.20;92.40;;;;;;4959983;28;20027;-93
2022/08/07 10:16:01;;;;;;;3.67;1.60;;;20.30;92.10;;;;;;4960242;28;20030;-92
2022/08/07 10:18:33;;;;;;;6.50;1.63;;;20.40;91.70;;;;;;4959246;28;20054;-95
2022/08/07 10:21:29;;;;;;;9.63;1.70;;;20.50;91.30;;;;;;4960585;28;20059;-92
2022/08/07 10:24:03;;;;;;;6.43;2.25;;;20.70;90.80;;;;;;4961068;28;20027;-93
2022/08/07 10:26:32;;;;;;;5.22;1.90;;;20.80;90.40;;;;;;4960889;28;20054;-94
2022/08/07 10:29:22;;;;;;;13.02;2.15;;;20.80;90.00;;;;;;4960440;28;20122;-93
2022/08/07 10:31:48;;;;;;;6.90;1.70;;;20.70;90.10;;;;;;4963370;28;20081;-95
2022/08/07 10:34:41;;;;;;;6.35;1.80;;;20.70;90.20;;;;;;4963661;28;20031;-94
2022/08/07 10:37:22;;;;;;;5.03;1.77;;;20.60;90.10;;;;;;4963161;28;20571;-96
2022/08/07 10:40:09;;;;;;;5.57;1.42;;;20.60;90.10;;;;;;4965626;28;20069;-94
2022/08/07 10:42:58;;;;;;;10.23;1.60;;;20.50;90.10;;;;;;4964833;28;20038;-95
2022/08/07 10:45:37;;;;;;;4.93;1.70;;;20.60;90.10;;;;;;4968264;28;20039;-95
2022/08/07 10:48:09;;;;;;;4.93;1.30;;;20.70;89.90;;;;;;4982156;28;20172;-94
2022/08/07 10:51:18;;;;;;;4.97;1.33;;;20.80;88.90;;;;;;4985394;28;20104;-94
2022/08/07 10:54:03;;;;;;;8.57;1.65;;;20.80;87.20;;;;;;4977098;28;20028;-93
2022/08/07 10:56:35;;;;;;;4.47;1.25;;;20.80;85.70;;;;;;4982500;28;20492;-94
2022/08/07 10:59:22;;;;;;;6.25;1.58;;;20.80;84.20;;;;;;4999748;28;20121;-94
2022/08/07 11:02:15;;;;;;;4.45;1.27;;;20.90;84.00;;;;;;4982829;28;20448;-94
2022/08/07 11:04:56;;;;;;;4.25;1.33;;;20.90;84.30;;;;;;4982325;28;20069;-94
2022/08/07 11:07:25;;;;;;;;;;;20.90;83.40;;;;;;4983802;28;20033;-92
2022/08/07 11:09:57;;;;;;;7.18;1.30;;;21.00;83.30;;;;;;4983896;28;19906;-94
2022/08/07 11:12:38;;;;;;;7.80;1.45;;;21.10;83.10;;;;;;5009618;28;20034;-91
2022/08/07 11:15:13;;;;;;;5.88;1.45;;;21.10;82.00;;;;;;4985721;28;20118;-96
2022/08/07 11:18:08;;;;;;;4.65;1.15;;;21.20;81.90;;;;;;4986660;28;20313;-94
2022/08/07 11:20:56;;;;;;;4.32;1.27;;;21.20;81.30;;;;;;4985769;28;20088;-94
2022/08/07 11:23:34;;;;;;;6.63;1.20;;;21.30;80.80;;;;;;4983174;28;20027;-93
2022/08/07 11:26:23;;;;;;;3.17;1.05;;;21.40;80.10;;;;;;4982643;28;20031;-94
2022/08/07 11:28:57;;;;;;;5.80;1.52;;;21.60;79.50;;;;;;4984854;28;20033;-93
2022/08/07 11:31:31;;;;;;;4.55;1.00;;;21.60;78.70;;;;;;4980640;28;20033;-94
2022/08/07 11:34:12;;;;;;;2.40;0.90;;;21.70;77.90;;;;;;4980408;28;20033;-93
2022/08/07 11:36:58;;;;;;;;;;;21.70;76.90;;;;;;4980220;28;20046;-93
2022/08/07 11:39:42;;;;;;;6.28;1.77;;;21.70;76.90;;;;;;4972608;28;19914;-92
2022/08/07 11:42:24;;;;;;;5.80;1.52;;;21.90;76.20;;;;;;4979685;28;20030;-93
2022/08/07 11:44:56;;;;;;;3.20;1.08;;;22.00;75.80;;;;;;4981426;28;20050;-93
2022/08/07 11:47:48;;;;;;;5.88;1.00;;;22.10;75.10;;;;;;4981966;28;20046;-93
2022/08/07 11:50:31;;;;;;;4.20;0.77;;;22.00;74.10;;;;;;4989452;28;20027;-91
2022/08/07 11:53:29;;;;;;;5.43;1.23;;;22.00;74.30;;;;;;4995788;28;20031;-92
2022/08/07 11:56:00;;;;;;;5.82;1.52;;;22.20;74.50;;;;;;4994580;28;20117;-93
2022/08/07 11:58:48;;;;;;;5.95;0.75;;;22.30;73.60;;;;;;4994353;28;20050;-95
2022/08/07 12:01:42;;;;;;;7.47;0.90;;;22.40;73.70;;;;;;4990693;28;20025;-94
2022/08/07 12:04:37;;;;;;;4.20;1.15;;;22.50;73.30;;;;;;4992765;28;20034;-93
2022/08/07 12:07:15;;;;;;;5.45;1.40;;;22.60;72.70;;;;;;4986433;28;20030;-95
2022/08/07 12:09:41;;;;;;;4.45;0.88;;;22.80;72.20;;;;;;4987056;28;20035;-93
2022/08/07 12:12:13;;;;;;;2.83;0.85;;;22.90;71.80;;;;;;4995213;28;20061;-94
2022/08/07 12:14:56;;;;;;;2.38;0.90;;;23.20;71.10;;;;;;4998305;28;20023;-92
2022/08/07 12:17:32;;;;;;;2.90;0.82;;;23.50;70.30;;;;;;4989932;28;20463;-94
2022/08/07 12:20:11;;;;;;;2.28;0.85;;;23.80;69.20;;;;;;4997337;28;20026;-94
2022/08/07 12:23:01;;;;;;;2.83;0.73;;;24.00;68.10;;;;;;5000785;28;20102;-92
2022/08/07 12:25:55;;;;;;;;;;;24.20;67.60;;;;;;5001426;28;20027;-91
2022/08/07 12:28:48;;;;;;;6.15;1.10;;;24.30;66.80;;;;;;5001671;28;19898;-89
2022/08/07 12:31:36;;;;;;;4.07;1.10;;;24.40;66.50;;;;;;5001254;28;20022;-89
2022/08/07 12:34:03;;;;;;;3.65;0.90;;;24.40;66.00;;;;;;5001345;28;20030;-90
2022/08/07 12:36:32;;;;;;;2.97;0.80;;;24.50;65.70;;;;;;4999973;28;20035;-92
2022/08/07 12:38:59;;;;;;;3.80;1.30;;;24.70;65.40;;;;;;4996635;28;20038;-95
2022/08/07 12:41:27;;;;;;;4.78;0.80;;;24.80;64.50;;;;;;4987282;28;20057;-94
2022/08/07 12:43:55;;;;;;;5.60;0.80;;;24.80;64.20;;;;;;4985271;28;20031;-96
2022/08/07 12:46:39;;;;;;;7.28;1.10;;;24.90;64.40;;;;;;4985077;28;20034;-95
2022/08/07 12:49:13;;;;;;;4.07;1.02;;;25.10;64.20;;;;;;4987541;28;20064;-95
2022/08/07 12:51:47;;;;;;;4.53;1.00;;;25.10;63.60;;;;;;4983388;28;20026;-93
2022/08/07 12:54:25;;;;;;;6.68;1.20;;;25.10;63.20;;;;;;4982838;28;20030;-94
2022/08/07 12:56:53;;;;;;;5.05;0.98;;;25.10;63.60;;;;;;4993699;28;20023;-93
2022/08/07 12:59:24;;;;;;;4.60;1.67;;;25.00;62.80;;;;;;4998519;28;20053;-92
2022/08/07 13:02:23;;;;;;;3.65;1.00;;;24.80;62.60;;;;;;4982795;28;20041;-93
2022/08/07 13:05:17;;;;;;;4.22;0.80;;;24.70;62.70;;;;;;4980063;28;20029;-93
2022/08/07 13:07:48;;;;;;;4.72;0.82;;;24.60;63.00;;;;;;4979940;28;20030;-95
2022/08/07 13:10:26;;;;;;;5.80;1.00;;;24.70;63.50;;;;;;4980523;28;20109;-94
2022/08/07 13:13:13;;;;;;;4.80;1.23;;;24.80;63.40;;;;;;4979832;28;20038;-94
2022/08/07 13:16:30;;;;;;;4.25;1.08;;;25.10;63.10;;;;;;4980535;28;20062;-94
2022/08/07 13:19:16;;;;;;;3.10;0.85;;;25.30;62.40;;;;;;4903558;29;20457;-93
2022/08/07 13:21:49;;;;;;;3.15;1.00;;;25.60;62.30;;;;;;4903212;29;20119;-94
2022/08/07 13:24:52;;;;;;;5.47;1.00;;;25.90;61.50;;;;;;4903029;29;20028;-94
2022/08/07 13:27:28;;;;;;;5.97;1.55;;;26.00;60.70;;;;;;4902799;29;20032;-95